sensor_id;sensor_type;location;lat;lon;timestamp;P1;durP1;ratioP1;P2;durP2;ratioP2
68284;SDS011;55114;52.052;5.238;2023-06-22T00:00:12;8.85;;;5.50;;
68284;SDS011;55114;52.052;5.238;2023-06-22T00:02:40;10.50;;;6.15;;
68284;SDS011;55114;52.052;5.238;2023-06-22T00:05:07;10.98;;;5.65;;
68284;SDS011;55114;52.052;5.238;2023-06-22T00:07:34;10.25;;;6.05;;
68284;SDS011;55114;52.052;5.238;2023-06-22T00:10:01;9.73;;;5.47;;
68284;SDS011;55114;52.052;5.238;2023-06-22T00:12:28;9.75;;;5.30;;
68284;SDS011;55114;52.052;5.238;2023-06-22T00:14:56;9.07;;;4.95;;
68284;SDS011;55114;52.052;5.238;2023-06-22T00:17:23;10.38;;;5.85;;
68284;SDS011;55114;52.052;5.238;2023-06-22T00:19:50;11.23;;;5.82;;
68284;SDS011;55114;52.052;5.238;2023-06-22T00:22:19;11.53;;;5.60;;
68284;SDS011;55114;52.052;5.238;2023-06-22T00:24:55;9.52;;;5.20;;
68284;SDS011;55114;52.052;5.238;2023-06-22T00:27:23;10.02;;;5.60;;
68284;SDS011;55114;52.052;5.238;2023-06-22T00:29:50;9.43;;;5.40;;
68284;SDS011;55114;52.052;5.238;2023-06-22T00:32:17;9.65;;;6.10;;
68284;SDS011;55114;52.052;5.238;2023-06-22T00:34:45;9.83;;;6.00;;
68284;SDS011;55114;52.052;5.238;2023-06-22T00:37:12;9.35;;;5.50;;
68284;SDS011;55114;52.052;5.238;2023-06-22T00:39:39;8.52;;;5.50;;
68284;SDS011;55114;52.052;5.238;2023-06-22T00:42:06;10.63;;;5.43;;
68284;SDS011;55114;52.052;5.238;2023-06-22T00:44:34;9.40;;;5.80;;
68284;SDS011;55114;52.052;5.238;2023-06-22T00:47:02;8.97;;;5.40;;
68284;SDS011;55114;52.052;5.238;2023-06-22T00:49:29;10.30;;;6.32;;
68284;SDS011;55114;52.052;5.238;2023-06-22T00:51:57;10.90;;;5.65;;
68284;SDS011;55114;52.052;5.238;2023-06-22T00:54:24;10.23;;;5.53;;
68284;SDS011;55114;52.052;5.238;2023-06-22T00:56:53;9.25;;;5.70;;
68284;SDS011;55114;52.052;5.238;2023-06-22T00:59:22;10.67;;;5.93;;
68284;SDS011;55114;52.052;5.238;2023-06-22T01:01:50;9.98;;;5.93;;
68284;SDS011;55114;52.052;5.238;2023-06-22T01:04:17;10.73;;;6.20;;
68284;SDS011;55114;52.052;5.238;2023-06-22T01:07:31;10.20;;;6.10;;
68284;SDS011;55114;52.052;5.238;2023-06-22T01:09:32;11.07;;;6.22;;
68284;SDS011;55114;52.052;5.238;2023-06-22T01:12:03;9.70;;;5.83;;
68284;SDS011;55114;52.052;5.238;2023-06-22T01:14:38;9.75;;;6.18;;
68284;SDS011;55114;52.052;5.238;2023-06-22T01:17:07;10.95;;;6.40;;
68284;SDS011;55114;52.052;5.238;2023-06-22T01:22:03;12.38;;;6.50;;
68284;SDS011;55114;52.052;5.238;2023-06-22T01:24:41;11.73;;;5.97;;
68284;SDS011;55114;52.052;5.238;2023-06-22T01:29:41;12.45;;;7.30;;
68284;SDS011;55114;52.052;5.238;2023-06-22T01:32:09;12.77;;;6.65;;
68284;SDS011;55114;52.052;5.238;2023-06-22T01:34:38;11.45;;;6.47;;
68284;SDS011;55114;52.052;5.238;2023-06-22T01:37:06;12.77;;;6.93;;
68284;SDS011;55114;52.052;5.238;2023-06-22T01:39:34;11.50;;;6.07;;
68284;SDS011;55114;52.052;5.238;2023-06-22T01:42:01;10.82;;;6.80;;
68284;SDS011;55114;52.052;5.238;2023-06-22T01:44:29;10.98;;;5.90;;
68284;SDS011;55114;52.052;5.238;2023-06-22T01:46:56;11.50;;;6.47;;
68284;SDS011;55114;52.052;5.238;2023-06-22T01:49:24;11.93;;;6.37;;
68284;SDS011;55114;52.052;5.238;2023-06-22T01:51:51;11.57;;;6.18;;
68284;SDS011;55114;52.052;5.238;2023-06-22T01:54:20;11.55;;;6.22;;
68284;SDS011;55114;52.052;5.238;2023-06-22T01:56:47;10.55;;;6.38;;
68284;SDS011;55114;52.052;5.238;2023-06-22T01:59:24;10.73;;;6.63;;
68284;SDS011;55114;52.052;5.238;2023-06-22T02:02:14;9.67;;;5.80;;
68284;SDS011;55114;52.052;5.238;2023-06-22T02:07:47;11.00;;;6.40;;
68284;SDS011;55114;52.052;5.238;2023-06-22T02:10:16;10.07;;;5.60;;
68284;SDS011;55114;52.052;5.238;2023-06-22T02:12:47;11.25;;;6.28;;
68284;SDS011;55114;52.052;5.238;2023-06-22T02:15:15;11.03;;;6.10;;
68284;SDS011;55114;52.052;5.238;2023-06-22T02:17:42;12.00;;;6.28;;
68284;SDS011;55114;52.052;5.238;2023-06-22T02:20:13;10.98;;;6.18;;
68284;SDS011;55114;52.052;5.238;2023-06-22T02:22:41;11.05;;;6.32;;
68284;SDS011;55114;52.052;5.238;2023-06-22T02:25:08;11.52;;;6.30;;
68284;SDS011;55114;52.052;5.238;2023-06-22T02:27:35;11.67;;;5.97;;
68284;SDS011;55114;52.052;5.238;2023-06-22T02:30:07;11.93;;;6.35;;
68284;SDS011;55114;52.052;5.238;2023-06-22T02:32:35;12.02;;;6.85;;
68284;SDS011;55114;52.052;5.238;2023-06-22T02:35:03;11.77;;;6.50;;
68284;SDS011;55114;52.052;5.238;2023-06-22T02:37:31;13.80;;;7.43;;
68284;SDS011;55114;52.052;5.238;2023-06-22T02:39:58;12.53;;;6.87;;
68284;SDS011;55114;52.052;5.238;2023-06-22T02:42:25;13.07;;;6.45;;
68284;SDS011;55114;52.052;5.238;2023-06-22T02:44:53;11.43;;;6.05;;
68284;SDS011;55114;52.052;5.238;2023-06-22T02:47:20;10.90;;;6.22;;
68284;SDS011;55114;52.052;5.238;2023-06-22T02:49:47;11.45;;;6.78;;
68284;SDS011;55114;52.052;5.238;2023-06-22T02:52:14;12.97;;;6.13;;
68284;SDS011;55114;52.052;5.238;2023-06-22T02:54:41;11.32;;;6.45;;
68284;SDS011;55114;52.052;5.238;2023-06-22T02:57:11;11.50;;;6.70;;
68284;SDS011;55114;52.052;5.238;2023-06-22T02:59:40;14.75;;;7.22;;
68284;SDS011;55114;52.052;5.238;2023-06-22T03:02:08;10.45;;;6.05;;
68284;SDS011;55114;52.052;5.238;2023-06-22T03:04:35;10.70;;;6.10;;
68284;SDS011;55114;52.052;5.238;2023-06-22T03:07:03;10.25;;;5.75;;
68284;SDS011;55114;52.052;5.238;2023-06-22T03:09:31;11.02;;;6.65;;
68284;SDS011;55114;52.052;5.238;2023-06-22T03:11:59;11.00;;;6.50;;
68284;SDS011;55114;52.052;5.238;2023-06-22T03:14:26;11.95;;;6.22;;
68284;SDS011;55114;52.052;5.238;2023-06-22T03:16:53;13.37;;;6.70;;
68284;SDS011;55114;52.052;5.238;2023-06-22T03:19:20;11.48;;;6.55;;
68284;SDS011;55114;52.052;5.238;2023-06-22T03:21:48;12.90;;;6.60;;
68284;SDS011;55114;52.052;5.238;2023-06-22T03:24:15;13.50;;;6.68;;
68284;SDS011;55114;52.052;5.238;2023-06-22T03:26:42;12.95;;;6.88;;
68284;SDS011;55114;52.052;5.238;2023-06-22T03:29:12;12.27;;;6.80;;
68284;SDS011;55114;52.052;5.238;2023-06-22T03:31:39;10.90;;;6.35;;
68284;SDS011;55114;52.052;5.238;2023-06-22T03:34:07;13.57;;;7.13;;
68284;SDS011;55114;52.052;5.238;2023-06-22T03:36:34;13.98;;;6.97;;
68284;SDS011;55114;52.052;5.238;2023-06-22T03:39:01;12.32;;;6.72;;
68284;SDS011;55114;52.052;5.238;2023-06-22T03:41:28;12.33;;;6.90;;
68284;SDS011;55114;52.052;5.238;2023-06-22T03:43:55;13.35;;;7.38;;
68284;SDS011;55114;52.052;5.238;2023-06-22T03:46:22;13.05;;;7.22;;
68284;SDS011;55114;52.052;5.238;2023-06-22T03:48:50;12.25;;;7.30;;
68284;SDS011;55114;52.052;5.238;2023-06-22T03:51:17;12.50;;;7.43;;
68284;SDS011;55114;52.052;5.238;2023-06-22T03:53:44;13.73;;;7.60;;
68284;SDS011;55114;52.052;5.238;2023-06-22T03:56:11;12.32;;;7.28;;
68284;SDS011;55114;52.052;5.238;2023-06-22T03:58:38;12.88;;;7.38;;
68284;SDS011;55114;52.052;5.238;2023-06-22T04:01:09;12.23;;;7.10;;
68284;SDS011;55114;52.052;5.238;2023-06-22T04:03:38;15.75;;;7.82;;
68284;SDS011;55114;52.052;5.238;2023-06-22T04:06:05;15.13;;;7.73;;
68284;SDS011;55114;52.052;5.238;2023-06-22T04:08:32;14.25;;;7.63;;
68284;SDS011;55114;52.052;5.238;2023-06-22T04:10:59;12.55;;;7.75;;
68284;SDS011;55114;52.052;5.238;2023-06-22T04:13:26;12.95;;;7.75;;
68284;SDS011;55114;52.052;5.238;2023-06-22T04:15:54;12.45;;;7.82;;
68284;SDS011;55114;52.052;5.238;2023-06-22T04:18:21;13.43;;;7.40;;
68284;SDS011;55114;52.052;5.238;2023-06-22T04:20:48;13.60;;;7.63;;
68284;SDS011;55114;52.052;5.238;2023-06-22T04:23:15;14.18;;;7.30;;
68284;SDS011;55114;52.052;5.238;2023-06-22T04:25:42;12.27;;;7.57;;
68284;SDS011;55114;52.052;5.238;2023-06-22T04:28:09;14.70;;;8.02;;
68284;SDS011;55114;52.052;5.238;2023-06-22T04:30:38;14.10;;;7.80;;
68284;SDS011;55114;52.052;5.238;2023-06-22T04:33:15;14.80;;;8.32;;
68284;SDS011;55114;52.052;5.238;2023-06-22T04:35:46;17.02;;;8.18;;
68284;SDS011;55114;52.052;5.238;2023-06-22T04:38:13;15.93;;;8.38;;
68284;SDS011;55114;52.052;5.238;2023-06-22T04:40:40;13.75;;;8.30;;
68284;SDS011;55114;52.052;5.238;2023-06-22T04:43:07;13.27;;;7.93;;
68284;SDS011;55114;52.052;5.238;2023-06-22T04:45:36;14.93;;;8.38;;
68284;SDS011;55114;52.052;5.238;2023-06-22T04:48:06;14.18;;;8.63;;
68284;SDS011;55114;52.052;5.238;2023-06-22T04:50:36;15.63;;;9.05;;
68284;SDS011;55114;52.052;5.238;2023-06-22T04:53:06;14.82;;;8.80;;
68284;SDS011;55114;52.052;5.238;2023-06-22T04:55:33;13.03;;;8.07;;
68284;SDS011;55114;52.052;5.238;2023-06-22T04:58:00;14.02;;;8.80;;
68284;SDS011;55114;52.052;5.238;2023-06-22T05:00:31;17.70;;;9.73;;
68284;SDS011;55114;52.052;5.238;2023-06-22T05:02:58;14.80;;;8.38;;
68284;SDS011;55114;52.052;5.238;2023-06-22T05:05:44;14.32;;;8.55;;
68284;SDS011;55114;52.052;5.238;2023-06-22T05:08:11;15.47;;;8.90;;
68284;SDS011;55114;52.052;5.238;2023-06-22T05:10:38;16.77;;;8.70;;
68284;SDS011;55114;52.052;5.238;2023-06-22T05:13:26;15.43;;;9.02;;
68284;SDS011;55114;52.052;5.238;2023-06-22T05:15:53;15.85;;;8.50;;
68284;SDS011;55114;52.052;5.238;2023-06-22T05:18:28;13.55;;;8.68;;
68284;SDS011;55114;52.052;5.238;2023-06-22T05:20:56;14.23;;;9.10;;
68284;SDS011;55114;52.052;5.238;2023-06-22T05:23:23;15.68;;;8.85;;
68284;SDS011;55114;52.052;5.238;2023-06-22T05:25:50;15.43;;;9.02;;
68284;SDS011;55114;52.052;5.238;2023-06-22T05:28:18;18.35;;;9.98;;
68284;SDS011;55114;52.052;5.238;2023-06-22T05:30:49;14.98;;;9.60;;
68284;SDS011;55114;52.052;5.238;2023-06-22T05:33:17;15.07;;;8.83;;
68284;SDS011;55114;52.052;5.238;2023-06-22T05:35:44;14.45;;;9.32;;
68284;SDS011;55114;52.052;5.238;2023-06-22T05:38:11;16.67;;;9.07;;
68284;SDS011;55114;52.052;5.238;2023-06-22T05:40:38;18.75;;;10.00;;
68284;SDS011;55114;52.052;5.238;2023-06-22T05:43:05;16.58;;;9.75;;
68284;SDS011;55114;52.052;5.238;2023-06-22T05:45:33;18.10;;;10.80;;
68284;SDS011;55114;52.052;5.238;2023-06-22T05:48:00;17.15;;;10.13;;
68284;SDS011;55114;52.052;5.238;2023-06-22T05:50:27;17.20;;;10.57;;
68284;SDS011;55114;52.052;5.238;2023-06-22T05:52:55;15.48;;;10.15;;
68284;SDS011;55114;52.052;5.238;2023-06-22T05:55:22;19.55;;;11.30;;
68284;SDS011;55114;52.052;5.238;2023-06-22T05:57:49;15.33;;;9.70;;
68284;SDS011;55114;52.052;5.238;2023-06-22T06:00:17;15.25;;;10.38;;
68284;SDS011;55114;52.052;5.238;2023-06-22T06:02:44;16.20;;;10.73;;
68284;SDS011;55114;52.052;5.238;2023-06-22T06:05:11;18.45;;;10.68;;
68284;SDS011;55114;52.052;5.238;2023-06-22T06:07:42;16.42;;;10.65;;
68284;SDS011;55114;52.052;5.238;2023-06-22T06:10:10;15.27;;;10.30;;
68284;SDS011;55114;52.052;5.238;2023-06-22T06:12:37;15.52;;;10.30;;
68284;SDS011;55114;52.052;5.238;2023-06-22T06:15:04;16.65;;;10.73;;
68284;SDS011;55114;52.052;5.238;2023-06-22T06:17:35;17.25;;;10.88;;
68284;SDS011;55114;52.052;5.238;2023-06-22T06:20:02;17.38;;;11.63;;
68284;SDS011;55114;52.052;5.238;2023-06-22T06:22:31;17.43;;;11.83;;
68284;SDS011;55114;52.052;5.238;2023-06-22T06:24:58;17.63;;;11.82;;
68284;SDS011;55114;52.052;5.238;2023-06-22T06:27:25;18.02;;;12.13;;
68284;SDS011;55114;52.052;5.238;2023-06-22T06:29:55;17.85;;;11.40;;
68284;SDS011;55114;52.052;5.238;2023-06-22T06:32:22;16.95;;;11.52;;
68284;SDS011;55114;52.052;5.238;2023-06-22T06:34:50;17.20;;;11.50;;
68284;SDS011;55114;52.052;5.238;2023-06-22T06:37:17;16.58;;;11.93;;
68284;SDS011;55114;52.052;5.238;2023-06-22T06:39:44;17.40;;;11.85;;
68284;SDS011;55114;52.052;5.238;2023-06-22T06:42:11;19.55;;;11.90;;
68284;SDS011;55114;52.052;5.238;2023-06-22T06:44:39;17.20;;;12.02;;
68284;SDS011;55114;52.052;5.238;2023-06-22T06:47:06;17.67;;;11.60;;
68284;SDS011;55114;52.052;5.238;2023-06-22T06:49:33;18.17;;;11.10;;
68284;SDS011;55114;52.052;5.238;2023-06-22T06:52:01;15.07;;;10.73;;
68284;SDS011;55114;52.052;5.238;2023-06-22T06:54:28;15.13;;;10.55;;
68284;SDS011;55114;52.052;5.238;2023-06-22T06:56:56;15.60;;;10.70;;
68284;SDS011;55114;52.052;5.238;2023-06-22T06:59:23;15.53;;;10.67;;
68284;SDS011;55114;52.052;5.238;2023-06-22T07:01:50;17.05;;;10.32;;
68284;SDS011;55114;52.052;5.238;2023-06-22T07:04:17;15.02;;;10.32;;
68284;SDS011;55114;52.052;5.238;2023-06-22T07:06:45;15.00;;;10.15;;
68284;SDS011;55114;52.052;5.238;2023-06-22T07:09:12;14.60;;;9.43;;
68284;SDS011;55114;52.052;5.238;2023-06-22T07:11:39;13.33;;;9.13;;
68284;SDS011;55114;52.052;5.238;2023-06-22T07:14:06;13.52;;;9.48;;
68284;SDS011;55114;52.052;5.238;2023-06-22T07:16:33;13.20;;;8.60;;
68284;SDS011;55114;52.052;5.238;2023-06-22T07:19:01;13.85;;;9.07;;
68284;SDS011;55114;52.052;5.238;2023-06-22T07:21:28;14.07;;;9.48;;
68284;SDS011;55114;52.052;5.238;2023-06-22T07:23:55;14.27;;;9.40;;
68284;SDS011;55114;52.052;5.238;2023-06-22T07:26:23;11.98;;;8.93;;
68284;SDS011;55114;52.052;5.238;2023-06-22T07:28:50;15.43;;;10.35;;
68284;SDS011;55114;52.052;5.238;2023-06-22T07:31:17;14.75;;;10.82;;
68284;SDS011;55114;52.052;5.238;2023-06-22T07:33:44;14.57;;;10.90;;
68284;SDS011;55114;52.052;5.238;2023-06-22T07:36:11;21.23;;;12.00;;
68284;SDS011;55114;52.052;5.238;2023-06-22T07:38:39;16.60;;;11.38;;
68284;SDS011;55114;52.052;5.238;2023-06-22T07:41:06;17.58;;;11.68;;
68284;SDS011;55114;52.052;5.238;2023-06-22T07:43:33;19.50;;;11.52;;
68284;SDS011;55114;52.052;5.238;2023-06-22T07:46:03;18.67;;;12.10;;
68284;SDS011;55114;52.052;5.238;2023-06-22T07:48:30;16.90;;;11.17;;
68284;SDS011;55114;52.052;5.238;2023-06-22T07:50:57;14.85;;;11.13;;
68284;SDS011;55114;52.052;5.238;2023-06-22T07:53:24;16.02;;;11.13;;
68284;SDS011;55114;52.052;5.238;2023-06-22T07:55:52;15.85;;;11.45;;
68284;SDS011;55114;52.052;5.238;2023-06-22T07:58:19;17.02;;;11.82;;
68284;SDS011;55114;52.052;5.238;2023-06-22T08:00:46;21.37;;;11.53;;
68284;SDS011;55114;52.052;5.238;2023-06-22T08:03:15;16.25;;;11.50;;
68284;SDS011;55114;52.052;5.238;2023-06-22T08:05:43;13.95;;;10.30;;
68284;SDS011;55114;52.052;5.238;2023-06-22T08:08:10;15.15;;;10.75;;
68284;SDS011;55114;52.052;5.238;2023-06-22T08:10:37;15.07;;;9.45;;
68284;SDS011;55114;52.052;5.238;2023-06-22T08:13:05;13.00;;;8.90;;
68284;SDS011;55114;52.052;5.238;2023-06-22T08:15:32;13.20;;;8.50;;
68284;SDS011;55114;52.052;5.238;2023-06-22T08:17:59;12.55;;;8.57;;
68284;SDS011;55114;52.052;5.238;2023-06-22T08:20:27;15.93;;;8.10;;
68284;SDS011;55114;52.052;5.238;2023-06-22T08:22:55;20.63;;;8.90;;
68284;SDS011;55114;52.052;5.238;2023-06-22T08:25:24;15.40;;;8.20;;
68284;SDS011;55114;52.052;5.238;2023-06-22T08:27:51;14.23;;;7.30;;
68284;SDS011;55114;52.052;5.238;2023-06-22T08:30:18;11.40;;;7.78;;
68284;SDS011;55114;52.052;5.238;2023-06-22T08:32:45;11.77;;;6.80;;
68284;SDS011;55114;52.052;5.238;2023-06-22T08:35:13;10.52;;;6.75;;
68284;SDS011;55114;52.052;5.238;2023-06-22T08:37:40;10.00;;;6.70;;
68284;SDS011;55114;52.052;5.238;2023-06-22T08:40:08;11.60;;;7.00;;
68284;SDS011;55114;52.052;5.238;2023-06-22T08:42:36;10.77;;;7.55;;
68284;SDS011;55114;52.052;5.238;2023-06-22T08:45:04;11.25;;;8.02;;
68284;SDS011;55114;52.052;5.238;2023-06-22T08:47:31;12.38;;;8.98;;
68284;SDS011;55114;52.052;5.238;2023-06-22T08:49:59;10.63;;;8.10;;
68284;SDS011;55114;52.052;5.238;2023-06-22T08:52:28;10.00;;;6.35;;
68284;SDS011;55114;52.052;5.238;2023-06-22T08:54:56;9.57;;;6.13;;
68284;SDS011;55114;52.052;5.238;2023-06-22T08:57:24;9.90;;;6.93;;
68284;SDS011;55114;52.052;5.238;2023-06-22T08:59:52;10.88;;;6.78;;
68284;SDS011;55114;52.052;5.238;2023-06-22T09:02:19;10.33;;;6.13;;
68284;SDS011;55114;52.052;5.238;2023-06-22T09:04:46;8.85;;;6.05;;
68284;SDS011;55114;52.052;5.238;2023-06-22T09:07:15;9.98;;;7.38;;
68284;SDS011;55114;52.052;5.238;2023-06-22T09:09:48;8.70;;;6.32;;
68284;SDS011;55114;52.052;5.238;2023-06-22T09:12:15;11.95;;;7.80;;
68284;SDS011;55114;52.052;5.238;2023-06-22T09:14:43;10.03;;;6.87;;
68284;SDS011;55114;52.052;5.238;2023-06-22T09:17:12;11.18;;;7.18;;
68284;SDS011;55114;52.052;5.238;2023-06-22T09:19:39;10.25;;;6.80;;
68284;SDS011;55114;52.052;5.238;2023-06-22T09:22:06;8.98;;;6.65;;
68284;SDS011;55114;52.052;5.238;2023-06-22T09:24:33;8.98;;;6.70;;
68284;SDS011;55114;52.052;5.238;2023-06-22T09:27:00;11.37;;;6.93;;
68284;SDS011;55114;52.052;5.238;2023-06-22T09:29:28;8.57;;;6.53;;
68284;SDS011;55114;52.052;5.238;2023-06-22T09:31:55;8.90;;;6.35;;
68284;SDS011;55114;52.052;5.238;2023-06-22T09:34:22;9.05;;;6.70;;
68284;SDS011;55114;52.052;5.238;2023-06-22T09:36:49;8.50;;;6.30;;
68284;SDS011;55114;52.052;5.238;2023-06-22T09:39:19;9.17;;;6.03;;
68284;SDS011;55114;52.052;5.238;2023-06-22T09:41:47;10.85;;;5.43;;
68284;SDS011;55114;52.052;5.238;2023-06-22T09:44:14;8.45;;;5.50;;
68284;SDS011;55114;52.052;5.238;2023-06-22T09:46:41;7.75;;;5.57;;
68284;SDS011;55114;52.052;5.238;2023-06-22T09:49:08;7.55;;;5.53;;
68284;SDS011;55114;52.052;5.238;2023-06-22T09:51:35;7.17;;;5.03;;
68284;SDS011;55114;52.052;5.238;2023-06-22T09:54:02;8.80;;;5.13;;
68284;SDS011;55114;52.052;5.238;2023-06-22T09:56:30;8.20;;;5.50;;
68284;SDS011;55114;52.052;5.238;2023-06-22T09:58:57;7.68;;;5.88;;
68284;SDS011;55114;52.052;5.238;2023-06-22T10:01:43;8.38;;;5.43;;
68284;SDS011;55114;52.052;5.238;2023-06-22T10:04:10;8.90;;;5.50;;
68284;SDS011;55114;52.052;5.238;2023-06-22T10:06:38;7.85;;;5.05;;
68284;SDS011;55114;52.052;5.238;2023-06-22T10:09:07;10.50;;;5.10;;
68284;SDS011;55114;52.052;5.238;2023-06-22T10:11:34;7.15;;;4.80;;
68284;SDS011;55114;52.052;5.238;2023-06-22T10:14:03;7.40;;;4.90;;
68284;SDS011;55114;52.052;5.238;2023-06-22T10:16:30;6.80;;;5.00;;
68284;SDS011;55114;52.052;5.238;2023-06-22T10:18:58;6.25;;;4.45;;
68284;SDS011;55114;52.052;5.238;2023-06-22T10:21:26;7.15;;;4.70;;
68284;SDS011;55114;52.052;5.238;2023-06-22T10:23:54;6.28;;;4.53;;
68284;SDS011;55114;52.052;5.238;2023-06-22T10:26:22;5.95;;;4.32;;
68284;SDS011;55114;52.052;5.238;2023-06-22T10:28:49;6.80;;;4.13;;
68284;SDS011;55114;52.052;5.238;2023-06-22T10:31:32;7.82;;;3.85;;
68284;SDS011;55114;52.052;5.238;2023-06-22T10:34:00;6.22;;;4.20;;
68284;SDS011;55114;52.052;5.238;2023-06-22T10:36:27;6.05;;;4.15;;
68284;SDS011;55114;52.052;5.238;2023-06-22T10:38:54;8.30;;;4.60;;
68284;SDS011;55114;52.052;5.238;2023-06-22T10:41:22;7.37;;;4.67;;
68284;SDS011;55114;52.052;5.238;2023-06-22T10:43:49;6.63;;;4.55;;
68284;SDS011;55114;52.052;5.238;2023-06-22T10:46:16;5.60;;;4.20;;
68284;SDS011;55114;52.052;5.238;2023-06-22T10:48:43;6.32;;;4.53;;
68284;SDS011;55114;52.052;5.238;2023-06-22T10:51:10;7.38;;;4.80;;
68284;SDS011;55114;52.052;5.238;2023-06-22T10:53:38;5.53;;;4.30;;
68284;SDS011;55114;52.052;5.238;2023-06-22T10:56:05;6.32;;;4.35;;
68284;SDS011;55114;52.052;5.238;2023-06-22T10:58:32;7.45;;;4.72;;
68284;SDS011;55114;52.052;5.238;2023-06-22T11:00:59;8.65;;;5.00;;
68284;SDS011;55114;52.052;5.238;2023-06-22T11:03:26;5.82;;;4.53;;
68284;SDS011;55114;52.052;5.238;2023-06-22T11:05:54;8.00;;;4.83;;
68284;SDS011;55114;52.052;5.238;2023-06-22T11:08:21;7.28;;;4.75;;
68284;SDS011;55114;52.052;5.238;2023-06-22T11:10:48;6.47;;;4.43;;
68284;SDS011;55114;52.052;5.238;2023-06-22T11:13:15;7.90;;;4.55;;
68284;SDS011;55114;52.052;5.238;2023-06-22T11:15:43;7.85;;;4.25;;
68284;SDS011;55114;52.052;5.238;2023-06-22T11:18:10;7.50;;;5.50;;
68284;SDS011;55114;52.052;5.238;2023-06-22T11:20:37;7.13;;;4.95;;
68284;SDS011;55114;52.052;5.238;2023-06-22T11:23:05;7.00;;;5.47;;
68284;SDS011;55114;52.052;5.238;2023-06-22T11:25:33;7.22;;;5.18;;
68284;SDS011;55114;52.052;5.238;2023-06-22T11:28:04;8.63;;;6.53;;
68284;SDS011;55114;52.052;5.238;2023-06-22T11:30:31;10.67;;;7.17;;
68284;SDS011;55114;52.052;5.238;2023-06-22T11:32:59;11.00;;;8.45;;
68284;SDS011;55114;52.052;5.238;2023-06-22T11:35:26;10.68;;;8.43;;
68284;SDS011;55114;52.052;5.238;2023-06-22T11:37:54;13.30;;;8.18;;
68284;SDS011;55114;52.052;5.238;2023-06-22T11:40:22;12.57;;;8.82;;
68284;SDS011;55114;52.052;5.238;2023-06-22T11:42:49;13.57;;;8.60;;
68284;SDS011;55114;52.052;5.238;2023-06-22T11:45:16;10.77;;;8.15;;
68284;SDS011;55114;52.052;5.238;2023-06-22T11:47:44;11.95;;;7.80;;
68284;SDS011;55114;52.052;5.238;2023-06-22T11:50:12;13.20;;;8.30;;
68284;SDS011;55114;52.052;5.238;2023-06-22T11:52:39;16.25;;;8.57;;
68284;SDS011;55114;52.052;5.238;2023-06-22T11:55:06;10.77;;;7.60;;
68284;SDS011;55114;52.052;5.238;2023-06-22T11:57:35;11.23;;;7.72;;
68284;SDS011;55114;52.052;5.238;2023-06-22T12:00:03;10.27;;;7.50;;
68284;SDS011;55114;52.052;5.238;2023-06-22T12:02:42;9.05;;;6.50;;
68284;SDS011;55114;52.052;5.238;2023-06-22T12:05:11;10.02;;;7.22;;
68284;SDS011;55114;52.052;5.238;2023-06-22T12:07:38;9.27;;;7.33;;
68284;SDS011;55114;52.052;5.238;2023-06-22T12:10:06;9.82;;;7.80;;
68284;SDS011;55114;52.052;5.238;2023-06-22T12:12:33;12.10;;;8.40;;
68284;SDS011;55114;52.052;5.238;2023-06-22T12:15:00;9.90;;;7.60;;
68284;SDS011;55114;52.052;5.238;2023-06-22T12:17:30;11.60;;;8.23;;
68284;SDS011;55114;52.052;5.238;2023-06-22T12:19:58;11.37;;;8.23;;
68284;SDS011;55114;52.052;5.238;2023-06-22T12:22:25;11.30;;;8.40;;
68284;SDS011;55114;52.052;5.238;2023-06-22T12:24:52;12.98;;;8.13;;
68284;SDS011;55114;52.052;5.238;2023-06-22T12:27:20;12.05;;;8.43;;
68284;SDS011;55114;52.052;5.238;2023-06-22T12:29:47;12.52;;;8.45;;
68284;SDS011;55114;52.052;5.238;2023-06-22T12:32:14;10.73;;;8.10;;
68284;SDS011;55114;52.052;5.238;2023-06-22T12:34:44;13.15;;;8.73;;
68284;SDS011;55114;52.052;5.238;2023-06-22T12:37:12;12.32;;;8.85;;
68284;SDS011;55114;52.052;5.238;2023-06-22T12:39:40;11.43;;;8.40;;
68284;SDS011;55114;52.052;5.238;2023-06-22T12:42:08;11.98;;;8.80;;
68284;SDS011;55114;52.052;5.238;2023-06-22T12:44:37;12.87;;;7.80;;
68284;SDS011;55114;52.052;5.238;2023-06-22T12:47:04;11.60;;;8.55;;
68284;SDS011;55114;52.052;5.238;2023-06-22T12:49:32;12.70;;;8.98;;
68284;SDS011;55114;52.052;5.238;2023-06-22T12:51:59;10.90;;;8.70;;
68284;SDS011;55114;52.052;5.238;2023-06-22T12:54:26;13.00;;;8.70;;
68284;SDS011;55114;52.052;5.238;2023-06-22T12:56:54;12.33;;;8.53;;
68284;SDS011;55114;52.052;5.238;2023-06-22T12:59:21;11.93;;;9.20;;
68284;SDS011;55114;52.052;5.238;2023-06-22T13:01:49;13.90;;;9.63;;
68284;SDS011;55114;52.052;5.238;2023-06-22T13:04:16;12.18;;;8.82;;
68284;SDS011;55114;52.052;5.238;2023-06-22T13:06:44;12.55;;;9.82;;
68284;SDS011;55114;52.052;5.238;2023-06-22T13:09:18;14.00;;;9.37;;
68284;SDS011;55114;52.052;5.238;2023-06-22T13:11:47;12.65;;;9.35;;
68284;SDS011;55114;52.052;5.238;2023-06-22T13:14:14;11.80;;;9.73;;
68284;SDS011;55114;52.052;5.238;2023-06-22T13:16:42;13.48;;;9.73;;
68284;SDS011;55114;52.052;5.238;2023-06-22T13:19:09;14.70;;;10.43;;
68284;SDS011;55114;52.052;5.238;2023-06-22T13:21:36;20.53;;;11.00;;
68284;SDS011;55114;52.052;5.238;2023-06-22T13:24:04;15.68;;;10.75;;
68284;SDS011;55114;52.052;5.238;2023-06-22T13:26:32;13.95;;;10.70;;
68284;SDS011;55114;52.052;5.238;2023-06-22T13:29:00;14.52;;;10.70;;
68284;SDS011;55114;52.052;5.238;2023-06-22T13:31:27;14.75;;;10.93;;
68284;SDS011;55114;52.052;5.238;2023-06-22T13:33:54;15.33;;;10.93;;
68284;SDS011;55114;52.052;5.238;2023-06-22T13:36:21;13.30;;;10.57;;
68284;SDS011;55114;52.052;5.238;2023-06-22T13:38:49;14.52;;;11.25;;
68284;SDS011;55114;52.052;5.238;2023-06-22T13:41:16;15.85;;;11.80;;
68284;SDS011;55114;52.052;5.238;2023-06-22T13:43:44;15.50;;;11.55;;
68284;SDS011;55114;52.052;5.238;2023-06-22T13:46:11;15.33;;;12.20;;
68284;SDS011;55114;52.052;5.238;2023-06-22T13:48:38;16.17;;;12.63;;
68284;SDS011;55114;52.052;5.238;2023-06-22T13:51:05;19.27;;;12.63;;
68284;SDS011;55114;52.052;5.238;2023-06-22T13:53:32;16.65;;;12.80;;
68284;SDS011;55114;52.052;5.238;2023-06-22T13:56:00;18.77;;;13.77;;
68284;SDS011;55114;52.052;5.238;2023-06-22T13:58:27;20.47;;;14.20;;
68284;SDS011;55114;52.052;5.238;2023-06-22T14:00:54;19.63;;;14.15;;
68284;SDS011;55114;52.052;5.238;2023-06-22T14:03:22;18.98;;;14.48;;
68284;SDS011;55114;52.052;5.238;2023-06-22T14:05:49;19.58;;;13.85;;
68284;SDS011;55114;52.052;5.238;2023-06-22T14:08:20;18.70;;;14.02;;
68284;SDS011;55114;52.052;5.238;2023-06-22T14:11:06;18.90;;;14.07;;
68284;SDS011;55114;52.052;5.238;2023-06-22T14:13:33;20.48;;;14.73;;
68284;SDS011;55114;52.052;5.238;2023-06-22T14:16:01;18.73;;;14.10;;
68284;SDS011;55114;52.052;5.238;2023-06-22T14:18:30;22.15;;;13.70;;
68284;SDS011;55114;52.052;5.238;2023-06-22T14:20:57;19.52;;;13.90;;
68284;SDS011;55114;52.052;5.238;2023-06-22T14:23:25;20.00;;;13.77;;
68284;SDS011;55114;52.052;5.238;2023-06-22T14:25:52;23.38;;;15.05;;
68284;SDS011;55114;52.052;5.238;2023-06-22T14:28:19;19.35;;;14.07;;
68284;SDS011;55114;52.052;5.238;2023-06-22T14:30:46;23.02;;;14.95;;
68284;SDS011;55114;52.052;5.238;2023-06-22T14:33:13;20.23;;;13.93;;
68284;SDS011;55114;52.052;5.238;2023-06-22T14:35:40;20.30;;;14.23;;
68284;SDS011;55114;52.052;5.238;2023-06-22T14:38:08;19.23;;;13.55;;
68284;SDS011;55114;52.052;5.238;2023-06-22T14:40:35;19.80;;;13.88;;
68284;SDS011;55114;52.052;5.238;2023-06-22T14:43:22;18.73;;;13.82;;
68284;SDS011;55114;52.052;5.238;2023-06-22T14:45:49;19.23;;;13.93;;